createdAt,value
2022-09-12T00:00:20.104Z,0.00
2022-09-12T00:01:06.142Z,0.00
2022-09-12T00:01:52.160Z,0.00
2022-09-12T00:02:38.073Z,0.00
2022-09-12T00:03:24.107Z,0.00
2022-09-12T00:04:10.081Z,0.00
2022-09-12T00:04:56.122Z,0.00
2022-09-12T00:05:42.085Z,0.00
2022-09-12T00:06:28.101Z,0.00
2022-09-12T00:07:14.109Z,0.00
2022-09-12T00:08:00.128Z,0.00
2022-09-12T00:08:46.156Z,0.00
2022-09-12T00:09:32.165Z,0.00
2022-09-12T00:10:18.325Z,0.00
2022-09-12T00:11:04.535Z,0.00
2022-09-12T00:11:50.040Z,0.00
2022-09-12T00:12:36.143Z,0.00
2022-09-12T00:13:22.111Z,0.00
2022-09-12T00:14:08.134Z,0.00
2022-09-12T00:14:54.095Z,0.00
2022-09-12T00:15:40.219Z,0.00
2022-09-12T00:16:26.236Z,0.00
2022-09-12T00:17:12.205Z,0.00
2022-09-12T00:17:58.109Z,0.00
2022-09-12T00:18:44.262Z,0.00
2022-09-12T00:19:30.114Z,0.00
2022-09-12T00:20:16.112Z,0.00
2022-09-12T00:21:02.167Z,0.00
2022-09-12T00:21:48.205Z,0.00
2022-09-12T00:22:34.223Z,0.00
2022-09-12T00:23:20.087Z,0.00
2022-09-12T00:24:06.274Z,0.00
2022-09-12T00:24:52.133Z,0.00
2022-09-12T00:25:38.172Z,0.00
2022-09-12T00:26:24.194Z,0.00
2022-09-12T00:27:10.179Z,0.00
2022-09-12T00:27:56.202Z,0.00
2022-09-12T00:28:42.234Z,0.00
2022-09-12T00:29:28.195Z,0.00
2022-09-12T00:30:14.226Z,0.00
2022-09-12T00:31:00.281Z,0.00
2022-09-12T00:31:46.157Z,0.00
2022-09-12T00:32:32.263Z,0.00
2022-09-12T00:33:18.174Z,0.00
2022-09-12T00:34:04.264Z,0.00
2022-09-12T00:34:50.139Z,0.00
2022-09-12T00:35:36.212Z,0.00
2022-09-12T00:36:22.194Z,0.00
2022-09-12T00:37:08.271Z,0.00
2022-09-12T00:37:54.170Z,0.00
2022-09-12T00:38:40.161Z,0.00
2022-09-12T00:39:26.207Z,0.00
2022-09-12T00:40:12.294Z,0.00
2022-09-12T00:40:58.199Z,0.00
2022-09-12T00:41:44.286Z,0.00
2022-09-12T00:42:30.193Z,0.00
2022-09-12T00:43:16.344Z,0.00
2022-09-12T00:44:02.221Z,0.00
2022-09-12T00:44:48.286Z,0.00
2022-09-12T00:45:34.358Z,0.00
2022-09-12T00:46:20.285Z,0.00
2022-09-12T00:47:06.252Z,0.00
2022-09-12T00:47:52.306Z,0.00
2022-09-12T00:48:38.230Z,0.00
2022-09-12T00:49:24.188Z,0.00
2022-09-12T00:50:10.300Z,0.00
2022-09-12T00:50:56.254Z,0.00
2022-09-12T00:51:42.335Z,0.00
2022-09-12T00:52:28.333Z,0.00
2022-09-12T00:53:14.243Z,0.00
2022-09-12T00:54:00.257Z,0.00
2022-09-12T00:54:46.209Z,0.00
2022-09-12T00:55:32.330Z,0.00
2022-09-12T00:56:18.416Z,0.00
2022-09-12T00:57:04.264Z,0.00
2022-09-12T00:57:50.169Z,0.00
2022-09-12T00:58:36.437Z,0.00
2022-09-12T00:59:22.225Z,0.00
2022-09-12T01:00:08.301Z,0.00
2022-09-12T01:00:54.245Z,0.00
2022-09-12T01:01:40.409Z,0.00
2022-09-12T01:02:26.325Z,0.00
2022-09-12T01:03:12.238Z,0.00
2022-09-12T01:03:58.255Z,0.00
2022-09-12T01:04:44.204Z,0.00
2022-09-12T01:05:30.219Z,0.00
2022-09-12T01:06:16.249Z,0.00
2022-09-12T01:07:02.314Z,0.00
2022-09-12T01:07:48.247Z,0.00
2022-09-12T01:08:34.278Z,0.00
2022-09-12T01:09:20.279Z,0.00
2022-09-12T01:10:06.338Z,0.00
2022-09-12T01:10:52.407Z,0.00
2022-09-12T01:11:38.245Z,0.00
2022-09-12T01:12:24.262Z,0.00
2022-09-12T01:13:10.302Z,0.00
2022-09-12T01:13:56.351Z,0.00
2022-09-12T01:14:42.313Z,0.00
2022-09-12T01:15:28.529Z,0.00
2022-09-12T01:16:14.385Z,0.00
2022-09-12T01:17:00.271Z,0.00
2022-09-12T01:17:46.329Z,0.00
2022-09-12T01:18:32.237Z,0.00
2022-09-12T01:19:18.354Z,0.00
2022-09-12T01:20:04.292Z,0.00
2022-09-12T01:20:50.270Z,0.00
2022-09-12T01:21:36.370Z,0.00
2022-09-12T01:22:22.400Z,0.00
2022-09-12T01:23:08.279Z,0.00
2022-09-12T01:23:54.326Z,0.00
2022-09-12T01:24:40.291Z,0.00
2022-09-12T01:25:26.370Z,0.00
2022-09-12T01:26:12.315Z,0.00
2022-09-12T01:26:58.340Z,0.00
2022-09-12T01:27:44.279Z,0.00
2022-09-12T01:28:30.399Z,0.00
2022-09-12T01:29:16.302Z,0.00
2022-09-12T01:30:02.633Z,0.00
2022-09-12T01:30:48.370Z,0.00
2022-09-12T01:31:34.290Z,0.00
2022-09-12T01:32:20.423Z,0.00
2022-09-12T01:33:06.426Z,0.00
2022-09-12T01:33:52.337Z,0.00
2022-09-12T01:34:38.304Z,0.00
2022-09-12T01:35:24.308Z,0.00
2022-09-12T01:36:10.324Z,0.00
2022-09-12T01:36:56.398Z,0.00
2022-09-12T01:37:42.349Z,0.00
2022-09-12T01:38:28.338Z,0.00
2022-09-12T01:39:14.342Z,0.00
2022-09-12T01:40:00.551Z,0.00
2022-09-12T01:40:46.323Z,0.00
2022-09-12T01:41:32.413Z,0.00
2022-09-12T01:42:18.403Z,0.00
2022-09-12T01:43:04.402Z,0.00
2022-09-12T01:43:50.314Z,0.00
2022-09-12T01:44:36.408Z,0.00
2022-09-12T01:45:22.428Z,0.00
2022-09-12T01:46:08.457Z,0.00
2022-09-12T01:46:54.346Z,0.00
2022-09-12T01:47:40.365Z,0.00
2022-09-12T01:48:26.411Z,0.00
2022-09-12T01:49:12.387Z,0.00
2022-09-12T01:49:58.391Z,0.00
2022-09-12T01:50:44.418Z,0.00
2022-09-12T01:51:30.337Z,0.00
2022-09-12T01:52:16.475Z,0.00
2022-09-12T01:53:02.433Z,0.00
2022-09-12T01:53:48.450Z,0.00
2022-09-12T01:54:34.382Z,0.00
2022-09-12T01:55:20.397Z,0.00
2022-09-12T01:56:06.431Z,0.00
2022-09-12T01:56:52.365Z,0.00
2022-09-12T01:57:38.662Z,0.00
2022-09-12T01:58:24.469Z,0.00
2022-09-12T01:59:10.379Z,0.00
2022-09-12T01:59:56.464Z,0.00
2022-09-12T02:00:42.513Z,0.00
2022-09-12T02:01:28.534Z,0.00
2022-09-12T02:02:14.414Z,0.00
2022-09-12T02:03:00.487Z,0.00
2022-09-12T02:03:46.402Z,0.00
2022-09-12T02:04:34.369Z,0.00
2022-09-12T02:05:18.442Z,0.00
2022-09-12T02:06:04.673Z,0.00
2022-09-12T02:06:50.413Z,0.00
2022-09-12T02:07:36.466Z,0.00
2022-09-12T02:08:22.423Z,0.00
2022-09-12T02:09:08.422Z,0.00
2022-09-12T02:09:54.429Z,0.00
2022-09-12T02:10:40.438Z,0.00
2022-09-12T02:11:26.467Z,0.00
2022-09-12T02:12:12.444Z,0.00
2022-09-12T02:12:58.397Z,0.00
2022-09-12T02:13:44.427Z,0.00
2022-09-12T02:14:30.419Z,0.00
2022-09-12T02:15:16.570Z,0.00
2022-09-12T02:16:02.464Z,0.00
2022-09-12T02:16:48.591Z,0.00
2022-09-12T02:17:34.490Z,0.00
2022-09-12T02:18:20.542Z,0.00
2022-09-12T02:19:06.470Z,0.00
2022-09-12T02:19:52.458Z,0.00
2022-09-12T02:20:48.509Z,0.00
2022-09-12T02:21:24.477Z,0.00
2022-09-12T02:22:10.422Z,0.00
2022-09-12T02:22:56.514Z,0.00
2022-09-12T02:23:42.499Z,0.00
2022-09-12T02:24:28.483Z,0.00
2022-09-12T02:25:14.449Z,0.00
2022-09-12T02:26:00.428Z,0.00
2022-09-12T02:26:46.389Z,0.00
2022-09-12T02:27:32.434Z,0.00
2022-09-12T02:28:18.421Z,0.00
2022-09-12T02:29:04.455Z,0.00
2022-09-12T02:29:50.405Z,0.00
2022-09-12T02:30:36.601Z,0.00
2022-09-12T02:31:22.437Z,0.00
2022-09-12T02:32:08.482Z,0.00
2022-09-12T02:32:54.426Z,0.00
2022-09-12T02:33:40.449Z,0.00
2022-09-12T02:34:26.513Z,0.00
2022-09-12T02:35:12.451Z,0.00
2022-09-12T02:35:58.431Z,0.00
2022-09-12T02:36:44.508Z,0.00
2022-09-12T02:37:30.449Z,0.00
2022-09-12T02:38:16.449Z,0.00
2022-09-12T02:39:02.490Z,0.00
2022-09-12T02:39:48.590Z,0.00
2022-09-12T02:40:34.499Z,0.00
2022-09-12T02:41:20.461Z,0.00
2022-09-12T02:42:06.481Z,0.00
2022-09-12T02:42:52.474Z,0.00
2022-09-12T02:43:38.451Z,0.00
2022-09-12T02:44:24.486Z,0.00
2022-09-12T02:45:10.489Z,0.00
2022-09-12T02:45:56.614Z,0.00
2022-09-12T02:46:42.482Z,0.00
2022-09-12T02:47:28.531Z,0.00
2022-09-12T02:48:14.486Z,0.00
2022-09-12T02:49:00.481Z,0.00
2022-09-12T02:49:46.496Z,0.00
2022-09-12T02:50:32.465Z,0.00
2022-09-12T02:51:22.920Z,0.00
2022-09-12T02:52:04.503Z,0.00
2022-09-12T02:52:50.487Z,0.00
2022-09-12T02:53:36.544Z,0.00
2022-09-12T02:54:22.509Z,0.00
2022-09-12T02:55:08.501Z,0.00
2022-09-12T02:55:54.483Z,0.00
2022-09-12T02:56:40.497Z,0.00
2022-09-12T02:57:26.486Z,0.00
2022-09-12T02:58:12.502Z,0.00
2022-09-12T02:58:58.521Z,0.00
2022-09-12T02:59:44.505Z,0.00
2022-09-12T03:00:30.591Z,0.00
2022-09-12T03:01:16.569Z,0.00
2022-09-12T03:02:02.648Z,0.00
2022-09-12T03:02:48.505Z,0.00
2022-09-12T03:03:34.524Z,0.00
2022-09-12T03:04:20.510Z,0.00
2022-09-12T03:05:06.527Z,0.00
2022-09-12T03:05:52.518Z,0.00
2022-09-12T03:06:38.534Z,0.00
2022-09-12T03:07:24.555Z,0.00
2022-09-12T03:08:10.526Z,0.00
2022-09-12T03:08:56.557Z,0.00
2022-09-12T03:09:42.535Z,0.00
2022-09-12T03:10:28.540Z,0.00
2022-09-12T03:11:14.580Z,0.00
2022-09-12T03:12:00.539Z,0.00
2022-09-12T03:12:46.613Z,0.00
2022-09-12T03:13:32.549Z,0.00
2022-09-12T03:14:18.614Z,0.00
2022-09-12T03:15:04.658Z,0.00
2022-09-12T03:15:50.578Z,0.00
2022-09-12T03:16:36.614Z,0.00
2022-09-12T03:17:22.547Z,0.00
2022-09-12T03:18:08.536Z,0.00
2022-09-12T03:18:54.581Z,0.00
2022-09-12T03:19:40.556Z,0.00
2022-09-12T03:20:26.622Z,0.00
2022-09-12T03:21:12.552Z,0.00
2022-09-12T03:21:58.562Z,0.00
2022-09-12T03:22:47.126Z,0.00
2022-09-12T03:23:30.537Z,0.00
2022-09-12T03:24:16.583Z,0.00
2022-09-12T03:25:02.677Z,0.00
2022-09-12T03:25:48.598Z,0.00
2022-09-12T03:26:34.594Z,0.00
2022-09-12T03:27:20.554Z,0.00
2022-09-12T03:28:06.626Z,0.00
2022-09-12T03:28:52.606Z,0.00
2022-09-12T03:29:38.627Z,0.00
2022-09-12T03:30:24.722Z,0.00
2022-09-12T03:31:10.561Z,0.00
2022-09-12T03:31:56.666Z,0.00
2022-09-12T03:32:42.611Z,0.00
2022-09-12T03:33:28.623Z,0.00
2022-09-12T03:34:14.601Z,0.00
2022-09-12T03:35:00.781Z,0.00
2022-09-12T03:35:46.621Z,0.00
2022-09-12T03:36:32.574Z,0.00
2022-09-12T03:37:18.574Z,0.00
2022-09-12T03:38:04.641Z,0.00
2022-09-12T03:38:50.637Z,0.00
2022-09-12T03:39:36.681Z,0.00
2022-09-12T03:40:22.575Z,0.00
2022-09-12T03:41:08.591Z,0.00
2022-09-12T03:41:54.608Z,0.00
2022-09-12T03:42:40.670Z,0.00
2022-09-12T03:43:26.769Z,0.00
2022-09-12T03:44:12.660Z,0.00
2022-09-12T03:44:58.604Z,0.00
2022-09-12T03:45:44.811Z,0.00
2022-09-12T03:46:30.611Z,0.00
2022-09-12T03:47:16.604Z,0.00
2022-09-12T03:48:02.607Z,0.00
2022-09-12T03:48:48.609Z,0.00
2022-09-12T03:49:34.657Z,0.00
2022-09-12T03:50:20.612Z,0.00
2022-09-12T03:51:06.729Z,0.00
2022-09-12T03:51:52.634Z,0.00
2022-09-12T03:52:38.627Z,0.00
2022-09-12T03:53:24.643Z,0.00
2022-09-12T03:54:10.642Z,0.00
2022-09-12T03:54:56.743Z,0.00
2022-09-12T03:55:42.695Z,0.00
2022-09-12T03:56:28.635Z,0.00
2022-09-12T03:57:14.687Z,0.00
2022-09-12T03:58:00.667Z,0.00
2022-09-12T03:58:46.858Z,0.00
2022-09-12T03:59:32.646Z,0.00
2022-09-12T04:00:19.931Z,0.00
2022-09-12T04:01:04.792Z,0.00
2022-09-12T04:01:50.757Z,0.00
2022-09-12T04:02:36.744Z,0.00
2022-09-12T04:03:22.657Z,0.00
2022-09-12T04:04:08.661Z,0.00
2022-09-12T04:04:54.708Z,0.00
2022-09-12T04:05:40.686Z,0.00
2022-09-12T04:06:26.737Z,0.00
2022-09-12T04:07:12.696Z,0.00
2022-09-12T04:07:58.675Z,0.00
2022-09-12T04:08:44.843Z,0.00
2022-09-12T04:09:30.646Z,0.00
2022-09-12T04:10:16.724Z,0.00
2022-09-12T04:11:02.679Z,0.00
2022-09-12T04:11:48.678Z,0.00
2022-09-12T04:12:34.705Z,0.00
2022-09-12T04:13:20.684Z,0.00
2022-09-12T04:14:06.704Z,0.00
2022-09-12T04:14:52.680Z,0.00
2022-09-12T04:15:38.770Z,0.00
2022-09-12T04:16:24.717Z,0.00
2022-09-12T04:17:10.687Z,0.00
2022-09-12T04:17:56.743Z,0.00
2022-09-12T04:18:42.809Z,0.00
2022-09-12T04:19:28.693Z,0.00
2022-09-12T04:20:14.751Z,0.00
2022-09-12T04:21:00.727Z,0.00
2022-09-12T04:21:46.753Z,0.00
2022-09-12T04:22:32.736Z,0.00
2022-09-12T04:23:18.714Z,0.00
2022-09-12T04:24:04.759Z,0.00
2022-09-12T04:24:50.731Z,0.00
2022-09-12T04:25:36.742Z,0.00
2022-09-12T04:26:22.715Z,0.00
2022-09-12T04:27:08.810Z,0.00
2022-09-12T04:27:54.749Z,0.00
2022-09-12T04:28:40.735Z,0.00
2022-09-12T04:29:26.915Z,0.00
2022-09-12T04:30:12.763Z,0.00
2022-09-12T04:30:58.776Z,0.00
2022-09-12T04:31:44.854Z,0.00
2022-09-12T04:32:30.754Z,0.00
2022-09-12T04:33:16.730Z,0.00
2022-09-12T04:34:02.761Z,0.00
2022-09-12T04:34:48.767Z,0.00
2022-09-12T04:35:34.847Z,0.00
2022-09-12T04:36:20.829Z,0.00
2022-09-12T04:37:06.780Z,0.00
2022-09-12T04:37:52.754Z,0.00
2022-09-12T04:38:38.734Z,0.00
2022-09-12T04:39:24.826Z,0.00
2022-09-12T04:40:11.018Z,0.00
2022-09-12T04:40:56.793Z,0.00
2022-09-12T04:41:42.883Z,0.00
2022-09-12T04:42:28.769Z,0.00
2022-09-12T04:43:14.831Z,0.00
2022-09-12T04:44:00.776Z,0.00
2022-09-12T04:44:46.822Z,0.00
2022-09-12T04:45:32.890Z,0.00
2022-09-12T04:46:18.846Z,0.00
2022-09-12T04:47:04.809Z,0.00
2022-09-12T04:47:50.765Z,0.00
2022-09-12T04:48:36.831Z,0.00
2022-09-12T04:49:22.811Z,0.00
2022-09-12T04:50:08.779Z,0.00
2022-09-12T04:50:54.793Z,0.00
2022-09-12T04:51:40.804Z,0.00
2022-09-12T04:52:26.858Z,0.00
2022-09-12T04:53:12.806Z,0.00
2022-09-12T04:53:58.796Z,0.00
2022-09-12T04:54:44.881Z,0.00
2022-09-12T04:55:30.781Z,0.00
2022-09-12T04:56:16.867Z,0.00
2022-09-12T04:57:02.791Z,0.00
2022-09-12T04:57:48.864Z,0.00
2022-09-12T04:58:34.845Z,0.00
2022-09-12T04:59:20.811Z,0.00
2022-09-12T05:00:07.322Z,0.00
2022-09-12T05:00:52.866Z,0.00
2022-09-12T05:01:38.952Z,0.36
2022-09-12T05:02:24.879Z,0.36
2022-09-12T05:03:10.849Z,0.00
2022-09-12T05:03:56.960Z,0.00
2022-09-12T05:04:42.910Z,0.85
2022-09-12T05:05:28.810Z,0.00
2022-09-12T05:06:14.894Z,0.85
2022-09-12T05:07:00.932Z,1.22
2022-09-12T05:07:46.869Z,0.85
2022-09-12T05:08:32.882Z,1.71
2022-09-12T05:09:18.983Z,0.85
2022-09-12T05:10:04.889Z,1.71
2022-09-12T05:10:50.927Z,1.22
2022-09-12T05:12:02.751Z,1.22
2022-09-12T05:12:22.902Z,1.71
2022-09-12T05:13:08.955Z,2.08
2022-09-12T05:13:54.931Z,2.08
2022-09-12T05:14:40.882Z,2.57
2022-09-12T05:15:28.090Z,2.57
2022-09-12T05:16:12.927Z,2.57
2022-09-12T05:16:59.062Z,2.57
2022-09-12T05:17:44.924Z,3.43
2022-09-12T05:18:30.934Z,2.94
2022-09-12T05:19:16.939Z,3.79
2022-09-12T05:20:02.967Z,3.79
2022-09-12T05:20:48.953Z,3.79
2022-09-12T05:21:34.882Z,4.77
2022-09-12T05:23:11.967Z,4.28
2022-09-12T05:23:53.100Z,4.28
2022-09-12T05:24:38.908Z,4.77
2022-09-12T05:25:24.937Z,4.77
2022-09-12T05:26:10.940Z,5.14
2022-09-12T05:26:57.044Z,5.99
2022-09-12T05:27:45.468Z,5.99
2022-09-12T05:28:28.897Z,6.48
2022-09-12T05:29:15.004Z,6.48
2022-09-12T05:30:01.529Z,7.34
2022-09-12T05:30:47.059Z,6.48
2022-09-12T05:31:33.019Z,7.34
2022-09-12T05:32:18.978Z,6.85
2022-09-12T05:33:05.090Z,7.34
2022-09-12T05:33:50.975Z,8.19
2022-09-12T05:34:36.988Z,8.19
2022-09-12T05:35:22.972Z,8.19
2022-09-12T05:36:08.946Z,8.56
2022-09-12T05:36:55.005Z,9.05
2022-09-12T05:37:40.957Z,8.19
2022-09-12T05:38:27.803Z,8.56
2022-09-12T05:39:12.976Z,9.05
2022-09-12T05:39:58.959Z,9.54
2022-09-12T05:40:45.026Z,8.56
2022-09-12T05:41:31.019Z,9.54
2022-09-12T05:42:17.059Z,10.39
2022-09-12T05:43:03.017Z,9.91
2022-09-12T05:43:49.048Z,9.05
2022-09-12T05:44:35.024Z,10.39
2022-09-12T05:45:21.012Z,11.62
2022-09-12T05:46:07.020Z,11.25
2022-09-12T05:46:52.971Z,12.11
2022-09-12T05:47:38.965Z,12.48
2022-09-12T05:48:24.978Z,13.82
2022-09-12T05:49:10.983Z,13.33
2022-09-12T05:49:57.044Z,12.48
2022-09-12T05:50:43.050Z,12.48
2022-09-12T05:51:28.978Z,11.62
2022-09-12T05:52:15.015Z,13.33
2022-09-12T05:53:00.979Z,12.97
2022-09-12T05:53:46.979Z,14.68
2022-09-12T05:54:33.029Z,13.82
2022-09-12T05:55:19.043Z,14.68
2022-09-12T05:56:05.086Z,15.53
2022-09-12T05:56:50.999Z,15.53
2022-09-12T05:57:37.461Z,16.88
2022-09-12T05:58:23.030Z,16.02
2022-09-12T05:59:09.006Z,15.53
2022-09-12T05:59:55.137Z,15.17
2022-09-12T06:00:41.049Z,18.60
2022-09-12T06:01:27.991Z,17.73
2022-09-12T06:02:13.055Z,17.73
2022-09-12T06:02:59.089Z,19.45
2022-09-12T06:03:45.038Z,20.31
2022-09-12T06:04:31.058Z,21.16
2022-09-12T06:05:17.058Z,20.31
2022-09-12T06:06:03.134Z,19.45
2022-09-12T06:06:49.047Z,19.94
2022-09-12T06:07:42.134Z,22.87
2022-09-12T06:08:21.011Z,22.51
2022-09-12T06:09:07.083Z,21.16
2022-09-12T06:09:53.038Z,22.02
2022-09-12T06:10:39.016Z,21.16
2022-09-12T06:11:25.055Z,20.31
2022-09-12T06:12:11.018Z,20.80
2022-09-12T06:12:57.225Z,21.65
2022-09-12T06:13:43.091Z,21.65
2022-09-12T06:14:29.041Z,23.36
2022-09-12T06:15:15.170Z,25.07
2022-09-12T06:16:01.097Z,25.94
2022-09-12T06:16:47.141Z,25.94
2022-09-12T06:17:33.085Z,30.70
2022-09-12T06:18:19.111Z,30.34
2022-09-12T06:19:05.169Z,31.19
2022-09-12T06:19:51.124Z,28.63
2022-09-12T06:20:37.076Z,31.19
2022-09-12T06:21:23.096Z,28.63
2022-09-12T06:22:09.066Z,25.56
2022-09-12T06:22:55.100Z,25.94
2022-09-12T06:23:41.135Z,23.85
2022-09-12T06:24:27.752Z,20.80
2022-09-12T06:25:13.049Z,22.02
2022-09-12T06:25:59.133Z,22.87
2022-09-12T06:26:45.468Z,22.87
2022-09-12T06:27:31.135Z,24.22
2022-09-12T06:28:17.215Z,22.02
2022-09-12T06:29:03.609Z,23.36
2022-09-12T06:29:49.095Z,23.36
2022-09-12T06:30:35.219Z,24.71
2022-09-12T06:31:21.095Z,25.56
2022-09-12T06:32:07.146Z,30.70
2022-09-12T06:32:53.370Z,30.70
2022-09-12T06:33:39.265Z,32.42
2022-09-12T06:34:25.434Z,35.11
2022-09-12T06:35:11.149Z,32.42
2022-09-12T06:35:57.701Z,29.85
2022-09-12T06:36:43.211Z,30.34
2022-09-12T06:37:29.399Z,31.56
2022-09-12T06:38:15.157Z,30.70
2022-09-12T06:39:01.509Z,31.56
2022-09-12T06:39:47.242Z,31.56
2022-09-12T06:40:33.146Z,32.90
2022-09-12T06:41:19.189Z,37.68
2022-09-12T06:42:05.235Z,41.10
2022-09-12T06:42:51.146Z,40.24
2022-09-12T06:43:37.165Z,41.59
2022-09-12T06:44:23.179Z,42.45
2022-09-12T06:45:09.185Z,40.73
2022-09-12T06:45:55.206Z,37.19
2022-09-12T06:46:41.184Z,37.19
2022-09-12T06:47:27.994Z,36.33
2022-09-12T06:48:13.225Z,38.53
2022-09-12T06:48:59.170Z,40.73
2022-09-12T06:49:45.186Z,38.53
2022-09-12T06:50:31.127Z,38.53
2022-09-12T06:51:17.183Z,38.17
2022-09-12T06:52:03.229Z,36.33
2022-09-12T06:52:49.154Z,36.33
2022-09-12T06:53:35.244Z,41.59
2022-09-12T06:54:21.191Z,45.51
2022-09-12T06:55:07.185Z,39.88
2022-09-12T06:55:53.152Z,35.97
2022-09-12T06:56:39.144Z,35.11
2022-09-12T06:57:25.136Z,35.11
2022-09-12T06:58:11.196Z,41.10
2022-09-12T06:58:57.310Z,48.07
2022-09-12T06:59:43.178Z,48.07
2022-09-12T07:00:29.208Z,47.22
2022-09-12T07:01:15.271Z,47.22
2022-09-12T07:02:01.217Z,52.85
2022-09-12T07:02:47.160Z,49.79
2022-09-12T07:03:33.241Z,50.28
2022-09-12T07:04:19.230Z,51.99
2022-09-12T07:05:05.297Z,51.99
2022-09-12T07:05:51.218Z,48.93
2022-09-12T07:06:37.260Z,56.76
2022-09-12T07:07:23.174Z,58.97
2022-09-12T07:08:09.313Z,58.48
2022-09-12T07:08:55.248Z,65.94
2022-09-12T07:09:41.206Z,66.31
2022-09-12T07:10:28.419Z,63.24
2022-09-12T07:11:13.270Z,75.85
2022-09-12T07:11:59.179Z,88.82
2022-09-12T07:12:45.203Z,89.31
2022-09-12T07:13:31.226Z,82.33
2022-09-12T07:14:17.274Z,98.85
2022-09-12T07:15:03.378Z,98.36
2022-09-12T07:15:49.290Z,103.61
2022-09-12T07:16:35.289Z,85.88
2022-09-12T07:17:21.251Z,92.36
2022-09-12T07:18:07.210Z,102.76
2022-09-12T07:18:53.240Z,106.19
2022-09-12T07:19:39.198Z,102.27
2022-09-12T07:20:25.402Z,88.45
2022-09-12T07:21:11.273Z,73.28
2022-09-12T07:21:58.817Z,67.16
2022-09-12T07:22:43.258Z,61.53
2022-09-12T07:23:29.225Z,65.45
2022-09-12T07:24:15.237Z,72.79
2022-09-12T07:25:01.259Z,63.24
2022-09-12T07:25:47.220Z,64.96
2022-09-12T07:26:33.245Z,64.96
2022-09-12T07:27:19.242Z,94.07
2022-09-12T07:28:05.221Z,90.16
2022-09-12T07:28:51.308Z,88.45
2022-09-12T07:29:37.883Z,76.70
2022-09-12T07:30:23.344Z,70.22
2022-09-12T07:31:24.616Z,76.34
2022-09-12T07:31:55.300Z,82.33
2022-09-12T07:32:41.231Z,87.10
2022-09-12T07:33:27.891Z,77.56
2022-09-12T07:34:13.294Z,70.71
2022-09-12T07:34:59.249Z,66.31
2022-09-12T07:35:45.284Z,59.33
2022-09-12T07:36:38.470Z,50.28
2022-09-12T07:37:17.358Z,52.48
2022-09-12T07:38:03.235Z,60.68
2022-09-12T07:38:49.311Z,66.31
2022-09-12T07:39:35.288Z,64.96
2022-09-12T07:40:21.256Z,64.10
2022-09-12T07:41:07.278Z,68.02
2022-09-12T07:41:52.544Z,68.02
2022-09-12T07:42:39.263Z,75.85
2022-09-12T07:43:25.329Z,72.79
2022-09-12T07:44:11.388Z,74.50
2022-09-12T07:44:57.425Z,74.14
2022-09-12T07:45:43.466Z,73.65
2022-09-12T07:46:29.279Z,73.65
2022-09-12T07:47:15.362Z,77.56
2022-09-12T07:48:01.329Z,77.19
2022-09-12T07:48:47.336Z,72.79
2022-09-12T07:49:33.289Z,74.50
2022-09-12T07:50:19.309Z,82.82
2022-09-12T07:51:05.402Z,81.48
2022-09-12T07:51:51.365Z,83.68
2022-09-12T07:52:37.399Z,83.68
2022-09-12T07:53:23.329Z,85.88
2022-09-12T07:54:09.293Z,87.59
2022-09-12T07:54:55.470Z,89.31
2022-09-12T07:55:41.377Z,88.45
2022-09-12T07:56:31.142Z,89.79
2022-09-12T07:57:13.374Z,88.82
2022-09-12T07:57:59.377Z,88.82
2022-09-12T07:58:45.375Z,84.53
2022-09-12T07:59:51.596Z,84.04
2022-09-12T08:00:17.443Z,83.68
2022-09-12T08:01:03.399Z,86.24
2022-09-12T08:01:49.431Z,92.73
2022-09-12T08:02:35.369Z,93.22
2022-09-12T08:03:21.342Z,94.56
2022-09-12T08:04:07.389Z,97.50
2022-09-12T08:04:53.326Z,99.34
2022-09-12T08:05:39.327Z,103.61
2022-09-12T08:06:25.400Z,104.10
2022-09-12T08:07:11.384Z,105.33
2022-09-12T08:07:57.870Z,106.19
2022-09-12T08:08:43.396Z,105.82
2022-09-12T08:09:29.454Z,102.76
2022-09-12T08:10:15.410Z,101.41
2022-09-12T08:11:01.348Z,101.05
2022-09-12T08:11:47.376Z,96.65
2022-09-12T08:12:33.389Z,103.61
2022-09-12T08:13:19.436Z,103.61
2022-09-12T08:14:05.430Z,110.96
2022-09-12T08:14:51.330Z,115.36
2022-09-12T08:15:37.566Z,105.82
2022-09-12T08:16:23.393Z,102.27
2022-09-12T08:17:09.396Z,94.93
2022-09-12T08:17:55.370Z,95.79
2022-09-12T08:18:41.357Z,100.56
2022-09-12T08:19:28.329Z,99.70
2022-09-12T08:20:13.441Z,98.36
2022-09-12T08:20:59.416Z,96.27
2022-09-12T08:21:45.427Z,97.13
2022-09-12T08:22:31.364Z,98.85
2022-09-12T08:23:17.437Z,98.36
2022-09-12T08:24:03.442Z,97.13
2022-09-12T08:24:49.437Z,96.65
2022-09-12T08:25:35.375Z,101.41
2022-09-12T08:26:21.420Z,116.22
2022-09-12T08:27:07.520Z,123.56
2022-09-12T08:27:53.515Z,125.76
2022-09-12T08:28:39.525Z,147.90
2022-09-12T08:29:25.488Z,166.13
2022-09-12T08:30:11.595Z,166.13
2022-09-12T08:30:57.629Z,143.99
2022-09-12T08:31:43.541Z,135.67
2022-09-12T08:32:29.575Z,138.73
2022-09-12T08:33:15.540Z,135.67
2022-09-12T08:34:02.295Z,134.81
2022-09-12T08:34:47.645Z,133.95
2022-09-12T08:35:33.503Z,136.65
2022-09-12T08:36:19.547Z,151.82
2022-09-12T08:37:05.761Z,177.39
2022-09-12T08:37:51.553Z,238.56
2022-09-12T08:38:37.568Z,389.03
2022-09-12T08:39:23.621Z,456.80
2022-09-12T08:40:09.655Z,444.20
2022-09-12T08:40:55.622Z,470.62
2022-09-12T08:41:41.608Z,493.62
2022-09-12T08:42:28.311Z,510.99
2022-09-12T08:43:13.616Z,509.65
2022-09-12T08:43:59.583Z,492.28
2022-09-12T08:44:45.627Z,462.79
2022-09-12T08:45:31.633Z,493.13
2022-09-12T08:46:17.719Z,515.77
2022-09-12T08:47:03.621Z,520.91
2022-09-12T08:47:49.561Z,513.57
2022-09-12T08:48:35.624Z,549.53
2022-09-12T08:49:21.574Z,553.08
2022-09-12T08:50:07.627Z,575.59
2022-09-12T08:50:53.569Z,556.99
2022-09-12T08:51:39.544Z,555.28
2022-09-12T08:52:25.631Z,551.37
2022-09-12T08:53:11.662Z,569.96
2022-09-12T08:53:57.719Z,571.67
2022-09-12T08:54:42.740Z,571.67
2022-09-12T08:55:29.621Z,561.77
2022-09-12T08:56:15.614Z,582.57
2022-09-12T08:57:01.600Z,561.77
2022-09-12T08:57:47.659Z,569.60
2022-09-12T08:58:33.608Z,561.77
2022-09-12T08:59:19.619Z,559.57
2022-09-12T09:00:05.672Z,557.36
2022-09-12T09:00:51.659Z,540.84
2022-09-12T09:01:37.658Z,545.62
2022-09-12T09:02:23.672Z,540.48
2022-09-12T09:03:09.782Z,564.33
2022-09-12T09:03:55.669Z,555.65
2022-09-12T09:04:41.724Z,532.65
2022-09-12T09:05:28.550Z,509.65
2022-09-12T09:06:13.620Z,514.42
2022-09-12T09:06:59.566Z,521.76
2022-09-12T09:07:45.727Z,501.82
2022-09-12T09:08:31.693Z,503.65
2022-09-12T09:09:17.585Z,515.77
2022-09-12T09:10:03.748Z,564.33
2022-09-12T09:10:49.623Z,560.42
2022-09-12T09:11:35.678Z,546.96
2022-09-12T09:12:21.645Z,560.42
2022-09-12T09:13:07.722Z,550.02
2022-09-12T09:13:53.635Z,532.28
2022-09-12T09:14:39.615Z,551.74
2022-09-12T09:15:25.768Z,565.19
2022-09-12T09:16:11.701Z,565.19
2022-09-12T09:16:57.740Z,540.84
2022-09-12T09:17:43.635Z,552.59
2022-09-12T09:18:29.648Z,562.62
2022-09-12T09:19:15.668Z,560.91
2022-09-12T09:20:01.699Z,590.39
2022-09-12T09:20:47.658Z,576.45
2022-09-12T09:21:33.679Z,560.42
2022-09-12T09:22:19.609Z,539.62
2022-09-12T09:23:05.624Z,511.85
2022-09-12T09:23:51.650Z,487.51
2022-09-12T09:24:37.673Z,477.96
2022-09-12T09:25:23.730Z,475.89
2022-09-12T09:26:09.660Z,465.00
2022-09-12T09:26:55.681Z,471.48
2022-09-12T09:27:41.844Z,494.11
2022-09-12T09:28:28.277Z,458.03
2022-09-12T09:29:13.697Z,464.51
2022-09-12T09:29:59.684Z,451.54
2022-09-12T09:30:45.877Z,471.48
2022-09-12T09:31:31.726Z,495.82
2022-09-12T09:32:17.744Z,504.51
2022-09-12T09:33:03.858Z,606.79
2022-09-12T09:33:49.778Z,594.67
2022-09-12T09:34:35.711Z,610.33
2022-09-12T09:35:21.719Z,563.84
2022-09-12T09:36:07.758Z,549.53
2022-09-12T09:36:53.731Z,561.77
2022-09-12T09:37:39.774Z,569.11
2022-09-12T09:38:25.677Z,556.14
2022-09-12T09:39:11.731Z,546.60
2022-09-12T09:39:57.814Z,560.91
2022-09-12T09:40:43.711Z,435.03
2022-09-12T09:41:29.678Z,551.37
2022-09-12T09:42:15.739Z,558.71
2022-09-12T09:43:01.703Z,540.48
2022-09-12T09:43:47.748Z,508.79
2022-09-12T09:44:33.718Z,489.34
2022-09-12T09:45:19.808Z,551.74
2022-09-12T09:46:05.752Z,537.06
2022-09-12T09:46:51.729Z,493.13
2022-09-12T09:47:37.671Z,537.06
2022-09-12T09:48:23.749Z,527.02
2022-09-12T09:49:09.760Z,496.69
2022-09-12T09:49:55.859Z,474.05
2022-09-12T09:50:41.673Z,514.06
2022-09-12T09:51:28.492Z,500.96
2022-09-12T09:52:13.789Z,525.31
2022-09-12T09:52:59.737Z,491.42
2022-09-12T09:53:45.781Z,443.71
2022-09-12T09:54:31.798Z,407.74
2022-09-12T09:55:17.826Z,458.03
2022-09-12T09:56:03.729Z,474.91
2022-09-12T09:56:49.703Z,481.52
2022-09-12T09:57:35.761Z,516.62
2022-09-12T09:58:21.780Z,537.91
2022-09-12T09:59:07.766Z,533.14
2022-09-12T09:59:53.714Z,541.33
2022-09-12T10:00:39.879Z,530.08